Time;durP1;ratioP1;P1;durP2;ratioP2;P2;SDS_P1;SDS_P2;PMS_P1;PMS_P2;Temp;Humidity;BMP_temperature;BMP_pressure;BME280_temperature;BME280_humidity;BME280_pressure;Samples;Min_cycle;Max_cycle;Signal;HPM_P1;HPM_P2
2022/10/22 00:01:10;;;;;;;1999.90;999.90;;;12.70;99.90;;;;;;5110566;28;20503;-65
2022/10/22 00:03:36;;;;;;;1999.90;999.90;;;12.70;99.90;;;;;;5110039;28;20092;-65
2022/10/22 00:06:02;;;;;;;1999.90;999.90;;;12.60;99.90;;;;;;5111049;28;20516;-65
2022/10/22 00:08:27;;;;;;;1999.90;999.90;;;12.50;99.90;;;;;;5110222;27;20043;-65
2022/10/22 00:10:53;;;;;;;1999.90;999.90;;;12.50;99.90;;;;;;5109604;28;20560;-65
2022/10/22 00:13:19;;;;;;;1999.90;999.90;;;12.40;99.90;;;;;;5109485;28;20043;-66
2022/10/22 00:15:44;;;;;;;1999.90;999.90;;;12.40;99.90;;;;;;5100421;28;20044;-65
2022/10/22 00:18:10;;;;;;;1999.90;999.90;;;12.40;99.90;;;;;;5107834;28;20040;-66
2022/10/22 00:20:35;;;;;;;1999.90;999.90;;;12.30;99.90;;;;;;5102603;27;20039;-65
2022/10/22 00:23:01;;;;;;;1999.90;999.90;;;12.30;99.90;;;;;;5095858;28;20386;-65
2022/10/22 00:25:27;;;;;;;1999.90;999.90;;;12.30;99.90;;;;;;5091962;28;20039;-65
2022/10/22 00:27:52;;;;;;;1999.90;999.90;;;12.30;99.90;;;;;;5101487;28;20054;-65
2022/10/22 00:30:18;;;;;;;1999.90;999.90;;;12.30;99.90;;;;;;5092116;28;20130;-65
2022/10/22 00:32:44;;;;;;;1999.90;999.90;;;12.30;99.90;;;;;;5094738;28;20489;-65
2022/10/22 00:35:09;;;;;;;1999.90;999.90;;;12.30;99.90;;;;;;5079928;28;20035;-65
2022/10/22 00:37:35;;;;;;;1999.90;999.90;;;12.30;99.90;;;;;;5110396;28;20613;-65
2022/10/22 00:40:00;;;;;;;1999.90;999.90;;;12.40;99.90;;;;;;5092377;28;20046;-65
2022/10/22 00:42:29;;;;;;;1999.90;999.90;;;12.30;99.90;;;;;;5109687;28;20081;-65
2022/10/22 00:45:09;;;;;;;1999.90;999.90;;;12.30;99.90;;;;;;5090846;28;20055;-65
2022/10/22 00:48:01;;;;;;;1999.90;999.90;;;12.30;99.90;;;;;;5088161;28;20455;-65
2022/10/22 00:50:46;;;;;;;1999.90;999.90;;;12.30;99.90;;;;;;5097048;28;20039;-65
2022/10/22 00:53:15;;;;;;;1999.90;999.90;;;12.20;99.90;;;;;;5070575;28;20555;-65
2022/10/22 00:55:44;;;;;;;1999.90;999.90;;;12.20;99.90;;;;;;5091538;28;20526;-65
2022/10/22 00:58:10;;;;;;;1999.90;999.90;;;12.20;99.90;;;;;;5090528;27;20050;-65
2022/10/22 01:00:35;;;;;;;1999.90;999.90;;;12.20;99.90;;;;;;5109780;27;20039;-65
2022/10/22 01:03:01;;;;;;;1999.90;999.90;;;12.20;99.90;;;;;;5073659;28;20043;-65
2022/10/22 01:05:40;;;;;;;1999.90;999.90;;;12.20;99.90;;;;;;5090911;28;20046;-65
2022/10/22 01:08:14;;;;;;;1999.90;999.90;;;12.20;99.90;;;;;;5107757;27;20054;-65
2022/10/22 01:10:58;;;;;;;1999.90;999.90;;;12.20;99.90;;;;;;5109120;28;20122;-65
2022/10/22 01:13:51;;;;;;;1999.90;999.90;;;12.20;99.90;;;;;;5109100;28;20062;-65
2022/10/22 01:16:43;;;;;;;1999.90;999.90;;;12.20;99.90;;;;;;5120848;27;20345;-65
2022/10/22 01:19:46;;;;;;;1999.90;999.90;;;12.30;99.90;;;;;;5079635;27;20138;-65
2022/10/22 01:22:31;;;;;;;1999.90;999.90;;;12.30;99.90;;;;;;5112504;27;20113;-65
2022/10/22 01:25:07;;;;;;;1999.90;999.90;;;12.30;99.90;;;;;;5096355;27;20528;-65
2022/10/22 01:28:00;;;;;;;1999.90;999.90;;;12.30;99.90;;;;;;5105291;27;20042;-65
2022/10/22 01:30:26;;;;;;;1999.90;999.90;;;12.30;99.90;;;;;;5096227;27;20412;-65
2022/10/22 01:32:56;;;;;;;1999.90;999.90;;;12.30;99.90;;;;;;5110969;27;20046;-65
2022/10/22 01:35:29;;;;;;;1999.90;999.90;;;12.30;99.90;;;;;;5107971;28;20088;-65
2022/10/22 01:38:00;;;;;;;1999.90;999.90;;;12.30;99.90;;;;;;5090097;28;20051;-65
2022/10/22 01:40:27;;;;;;;1999.90;999.90;;;12.30;99.90;;;;;;5090241;28;20039;-65
2022/10/22 01:43:05;;;;;;;1999.90;999.90;;;12.30;99.90;;;;;;5109113;28;20038;-65
2022/10/22 01:45:41;;;;;;;1999.90;999.90;;;12.20;99.90;;;;;;5069559;28;20508;-65
2022/10/22 01:48:16;;;;;;;1999.90;999.90;;;12.20;99.90;;;;;;5090151;28;20142;-65
2022/10/22 01:51:16;;;;;;;1999.90;999.90;;;12.20;99.90;;;;;;5086752;28;20059;-65
2022/10/22 01:53:52;;;;;;;1999.90;999.90;;;12.20;99.90;;;;;;5107928;28;20039;-65
2022/10/22 01:56:46;;;;;;;1999.90;999.90;;;12.20;99.90;;;;;;5108858;28;20485;-65
2022/10/22 01:59:35;;;;;;;1999.90;999.90;;;12.20;99.90;;;;;;5103439;28;20039;-65
2022/10/22 02:02:42;;;;;;;1999.90;999.90;;;12.20;99.90;;;;;;5107561;27;20124;-66
2022/10/22 02:05:21;;;;;;;1999.90;999.90;;;12.20;99.90;;;;;;5112252;27;20114;-65
2022/10/22 02:08:00;;;;;;;1999.90;999.90;;;12.20;99.90;;;;;;5107487;27;20045;-65
2022/10/22 02:10:28;;;;;;;1999.90;999.90;;;12.20;99.90;;;;;;5104452;28;20443;-65
2022/10/22 02:12:54;;;;;;;1999.90;999.90;;;12.20;99.90;;;;;;5075083;28;20044;-65
2022/10/22 02:15:24;;;;;;;1999.90;999.90;;;12.20;99.90;;;;;;5107361;28;20089;-65
2022/10/22 02:17:52;;;;;;;1999.90;999.90;;;12.20;99.90;;;;;;5090224;28;20457;-65
2022/10/22 02:20:26;;;;;;;1999.90;999.90;;;12.30;99.90;;;;;;5099386;28;20431;-65
2022/10/22 02:22:51;;;;;;;1999.90;999.90;;;12.30;99.90;;;;;;5107478;27;20067;-65
2022/10/22 02:25:20;;;;;;;1999.90;999.90;;;12.30;99.90;;;;;;5072135;28;20079;-65
2022/10/22 02:27:50;;;;;;;1999.90;999.90;;;12.30;99.90;;;;;;5073921;27;20413;-65
2022/10/22 02:30:18;;;;;;;1999.90;999.90;;;12.40;99.90;;;;;;5100720;28;20458;-65
2022/10/22 02:32:55;;;;;;;1999.90;999.90;;;12.40;99.90;;;;;;5109187;28;20074;-66
2022/10/22 02:35:23;;;;;;;1999.90;999.90;;;12.40;99.90;;;;;;5094160;28;20062;-65
2022/10/22 02:37:50;;;;;;;1999.90;999.90;;;12.40;99.90;;;;;;5088481;28;20050;-66
2022/10/22 02:40:16;;;;;;;1999.90;999.90;;;12.40;99.90;;;;;;5107650;28;20094;-65
2022/10/22 02:42:42;;;;;;;1999.90;999.90;;;12.50;99.90;;;;;;5107926;28;20386;-65
2022/10/22 02:45:09;;;;;;;1999.90;999.90;;;12.50;99.90;;;;;;5083925;28;20122;-65
2022/10/22 02:47:34;;;;;;;1999.90;999.90;;;12.50;99.90;;;;;;5107364;28;20074;-65
2022/10/22 02:50:00;;;;;;;1999.90;999.90;;;12.60;99.90;;;;;;5110648;28;20078;-65
2022/10/22 02:52:25;;;;;;;1999.90;999.90;;;12.60;99.90;;;;;;5091072;28;20075;-65
2022/10/22 02:54:51;;;;;;;1999.90;999.90;;;12.60;99.90;;;;;;5108530;28;20085;-65
2022/10/22 02:57:16;;;;;;;1999.90;999.90;;;12.60;99.90;;;;;;5069919;28;20072;-65
2022/10/22 02:59:42;;;;;;;1999.90;999.90;;;12.60;99.90;;;;;;5077378;28;20385;-65
2022/10/22 03:02:08;;;;;;;1999.90;999.90;;;12.60;99.90;;;;;;5072403;28;20044;-65
2022/10/22 03:04:34;;;;;;;1999.90;999.90;;;12.70;99.90;;;;;;5095680;28;20513;-66
2022/10/22 03:06:59;;;;;;;1999.90;999.90;;;12.70;99.90;;;;;;5089069;28;20362;-66
2022/10/22 03:09:25;;;;;;;1999.90;999.90;;;12.70;99.90;;;;;;5114251;28;20373;-65
2022/10/22 03:11:51;;;;;;;1999.90;999.90;;;12.60;99.90;;;;;;5103799;28;20107;-66
2022/10/22 03:14:16;;;;;;;1999.90;999.90;;;12.60;99.90;;;;;;5104280;28;20043;-65
2022/10/22 03:16:42;;;;;;;1999.90;999.90;;;12.60;99.90;;;;;;5103022;28;20044;-65
2022/10/22 03:19:08;;;;;;;1999.90;999.90;;;12.50;99.90;;;;;;5087541;28;20608;-65
2022/10/22 03:21:39;;;;;;;1999.90;999.90;;;12.50;99.90;;;;;;5102898;28;20047;-65
2022/10/22 03:24:13;;;;;;;1999.90;999.90;;;12.50;99.90;;;;;;5086432;28;20187;-65
2022/10/22 03:26:41;;;;;;;1999.90;999.90;;;12.40;99.90;;;;;;5095505;28;20052;-65
2022/10/22 03:29:09;;;;;;;1999.90;999.90;;;12.40;99.90;;;;;;5122133;28;20416;-65
2022/10/22 03:31:34;;;;;;;1999.90;999.90;;;12.40;99.90;;;;;;5108089;28;20481;-65
2022/10/22 03:34:00;;;;;;;1999.90;999.90;;;12.30;99.90;;;;;;5094975;28;20388;-65
2022/10/22 03:36:25;;;;;;;1999.90;999.90;;;12.30;99.90;;;;;;5116772;28;20043;-65
2022/10/22 03:38:52;;;;;;;1999.90;999.90;;;12.30;99.90;;;;;;5113550;28;20032;-66
2022/10/22 03:41:18;;;;;;;1999.90;999.90;;;12.20;99.90;;;;;;5117408;28;20039;-65
2022/10/22 03:43:48;;;;;;;1999.90;999.90;;;12.20;99.90;;;;;;5109770;28;20507;-66
2022/10/22 03:46:14;;;;;;;1999.90;999.90;;;12.10;99.90;;;;;;5095444;28;20059;-65
2022/10/22 03:48:40;;;;;;;1999.90;999.90;;;12.10;99.90;;;;;;5123506;27;20046;-65
2022/10/22 03:51:05;;;;;;;1999.90;999.90;;;12.00;99.90;;;;;;5119329;27;20400;-65
2022/10/22 03:53:31;;;;;;;1999.90;999.90;;;12.10;99.90;;;;;;5101063;28;20512;-65
2022/10/22 03:55:56;;;;;;;1999.90;999.90;;;12.00;99.90;;;;;;5096866;27;20040;-66
2022/10/22 03:58:22;;;;;;;1999.90;999.90;;;12.10;99.90;;;;;;5104274;28;20028;-65
2022/10/22 04:00:47;;;;;;;1999.90;999.90;;;12.10;99.90;;;;;;5091152;28;20072;-66
2022/10/22 04:03:13;;;;;;;1999.90;999.90;;;12.10;99.90;;;;;;5110413;28;20043;-65
2022/10/22 04:05:38;;;;;;;1999.90;999.90;;;12.10;99.90;;;;;;5109782;28;20121;-65
2022/10/22 04:08:04;;;;;;;1999.90;999.90;;;12.10;99.90;;;;;;5090839;27;20422;-65
2022/10/22 04:10:30;;;;;;;1999.90;999.90;;;12.10;99.90;;;;;;5106171;27;20512;-65
2022/10/22 04:12:55;;;;;;;1999.90;999.90;;;12.10;99.90;;;;;;5110699;27;20104;-65
2022/10/22 04:15:21;;;;;;;1999.90;999.90;;;12.00;99.90;;;;;;5109908;28;20397;-65
2022/10/22 04:17:46;;;;;;;1999.90;999.90;;;12.00;99.90;;;;;;5112955;27;20040;-65
2022/10/22 04:20:12;;;;;;;1999.90;999.90;;;12.00;99.90;;;;;;5116727;27;20036;-65
2022/10/22 04:22:37;;;;;;;1999.90;999.90;;;12.00;99.90;;;;;;5112393;27;20584;-65
2022/10/22 04:25:04;;;;;;;1999.90;999.90;;;12.00;99.90;;;;;;5101638;28;20043;-66
2022/10/22 04:27:33;;;;;;;1999.90;999.90;;;12.00;99.90;;;;;;5109861;28;20055;-65
2022/10/22 04:29:59;;;;;;;1999.90;999.90;;;12.00;99.90;;;;;;5108303;27;20409;-65
2022/10/22 04:32:27;;;;;;;1999.90;999.90;;;12.00;99.90;;;;;;5109321;28;20039;-65
2022/10/22 04:34:53;;;;;;;1999.90;999.90;;;12.00;99.90;;;;;;5108836;28;20042;-65
2022/10/22 04:37:19;;;;;;;1999.90;999.90;;;12.00;99.90;;;;;;5109943;27;20035;-65
2022/10/22 04:39:44;;;;;;;1999.90;999.90;;;12.00;99.90;;;;;;5091159;28;20618;-65
2022/10/22 04:42:10;;;;;;;1999.90;999.90;;;12.00;99.90;;;;;;5114211;27;20040;-65
2022/10/22 04:44:36;;;;;;;1999.90;999.90;;;12.00;99.90;;;;;;5108907;27;20057;-65
2022/10/22 04:47:01;;;;;;;1999.90;999.90;;;12.00;99.90;;;;;;5100036;27;20043;-65
2022/10/22 04:49:27;;;;;;;1999.90;999.90;;;12.10;99.90;;;;;;5109673;28;20040;-65
2022/10/22 04:51:52;;;;;;;1999.90;999.90;;;12.10;99.90;;;;;;5110544;27;20039;-65
2022/10/22 04:54:18;;;;;;;1999.90;999.90;;;12.10;99.90;;;;;;5109458;28;20872;-65
2022/10/22 04:56:43;;;;;;;1999.90;999.90;;;12.10;99.90;;;;;;5109983;28;20066;-65
2022/10/22 04:59:12;;;;;;;1999.90;999.90;;;12.10;99.90;;;;;;5108439;28;20035;-65
2022/10/22 05:01:41;;;;;;;1999.90;999.90;;;12.10;99.90;;;;;;5088053;28;20040;-66
2022/10/22 05:04:07;;;;;;;1999.90;999.90;;;12.00;99.90;;;;;;5109452;27;20040;-65
2022/10/22 05:06:35;;;;;;;1999.90;999.90;;;12.00;99.90;;;;;;5088337;28;20044;-65
2022/10/22 05:09:04;;;;;;;1999.90;999.90;;;12.00;99.90;;;;;;5086662;28;20054;-65
2022/10/22 05:11:34;;;;;;;1999.90;999.90;;;12.00;99.90;;;;;;5081556;28;20382;-65
2022/10/22 05:14:02;;;;;;;1999.90;999.90;;;12.10;99.90;;;;;;5109061;28;20474;-65
2022/10/22 05:16:29;;;;;;;1999.90;999.90;;;12.10;99.90;;;;;;5108526;27;20051;-65
2022/10/22 05:18:56;;;;;;;1999.90;999.90;;;12.10;99.90;;;;;;5089366;27;20059;-65
2022/10/22 05:21:22;;;;;;;1999.90;999.90;;;12.10;99.90;;;;;;5119269;27;20040;-66
2022/10/22 05:23:49;;;;;;;1999.90;999.90;;;12.10;99.90;;;;;;5077190;28;20050;-65
2022/10/22 05:26:19;;;;;;;1999.90;999.90;;;12.10;99.90;;;;;;5121927;27;20058;-65
2022/10/22 05:28:45;;;;;;;1999.90;999.90;;;12.10;99.90;;;;;;5117018;27;20043;-65
2022/10/22 05:31:11;;;;;;;1999.90;999.90;;;12.10;99.90;;;;;;5110903;27;20114;-65
2022/10/22 05:33:37;;;;;;;1999.90;999.90;;;12.10;99.90;;;;;;5091748;27;20040;-65
2022/10/22 05:36:05;;;;;;;1999.90;999.90;;;12.10;99.90;;;;;;5111242;27;20047;-65
2022/10/22 05:38:32;;;;;;;1999.90;999.90;;;12.10;99.90;;;;;;5078047;27;20047;-65
2022/10/22 05:41:06;;;;;;;1999.90;999.90;;;12.10;99.90;;;;;;5120331;27;20050;-66
2022/10/22 05:43:31;;;;;;;1999.90;999.90;;;12.10;99.90;;;;;;5114055;27;20070;-65
2022/10/22 05:46:03;;;;;;;1999.90;999.90;;;12.10;99.90;;;;;;5100982;27;20082;-65
2022/10/22 05:48:28;;;;;;;1999.90;999.90;;;12.10;99.90;;;;;;5110221;27;20051;-65
2022/10/22 05:50:55;;;;;;;1999.90;999.90;;;12.20;99.90;;;;;;5109080;28;20370;-65
2022/10/22 05:53:20;;;;;;;1999.90;999.90;;;12.20;99.90;;;;;;5109922;27;20051;-66
2022/10/22 05:55:46;;;;;;;1999.90;999.90;;;12.20;99.90;;;;;;5073031;28;20050;-65
2022/10/22 05:58:12;;;;;;;1999.90;999.90;;;12.30;99.90;;;;;;5087371;28;20088;-65
2022/10/22 06:00:38;;;;;;;1999.90;999.90;;;12.20;99.90;;;;;;5085658;28;20035;-65
2022/10/22 06:03:04;;;;;;;1999.90;999.90;;;12.20;99.90;;;;;;5103197;27;20042;-66
2022/10/22 06:05:29;;;;;;;1999.90;999.90;;;12.20;99.90;;;;;;5075071;28;20563;-65
2022/10/22 06:07:56;;;;;;;1999.90;999.90;;;12.20;99.90;;;;;;5099535;28;20451;-65
2022/10/22 06:10:22;;;;;;;1999.90;999.90;;;12.20;99.90;;;;;;5108056;27;20074;-65
2022/10/22 06:12:49;;;;;;;1999.90;999.90;;;12.20;99.90;;;;;;5105082;27;20043;-65
2022/10/22 06:15:17;;;;;;;1999.90;999.90;;;12.20;99.90;;;;;;5111455;27;20040;-65
2022/10/22 06:17:46;;;;;;;1999.90;999.90;;;12.20;99.90;;;;;;5103183;28;20032;-65
2022/10/22 06:20:13;;;;;;;1999.90;999.90;;;12.20;99.90;;;;;;5107177;28;20055;-65
2022/10/22 06:22:38;;;;;;;1999.90;999.90;;;12.20;99.90;;;;;;5102372;28;20398;-65
2022/10/22 06:25:05;;;;;;;1999.90;999.90;;;12.20;99.90;;;;;;5106879;28;20471;-65
2022/10/22 06:27:31;;;;;;;1999.90;999.90;;;12.20;99.90;;;;;;5089770;28;20086;-65
2022/10/22 06:29:56;;;;;;;1999.90;999.90;;;12.20;99.90;;;;;;5111205;27;20460;-65
2022/10/22 06:32:22;;;;;;;1999.90;999.90;;;12.20;99.90;;;;;;5108873;28;20405;-65
2022/10/22 06:34:49;;;;;;;1999.90;999.90;;;12.30;99.90;;;;;;5091194;28;20529;-66
2022/10/22 06:37:15;;;;;;;1999.90;999.90;;;12.20;99.90;;;;;;5114437;27;20051;-65
2022/10/22 06:39:40;;;;;;;1999.90;999.90;;;12.30;99.90;;;;;;5088654;28;20028;-66
2022/10/22 06:42:06;;;;;;;1999.90;999.90;;;12.30;99.90;;;;;;5090044;28;20442;-65
2022/10/22 06:44:31;;;;;;;1999.90;999.90;;;12.40;99.90;;;;;;5095263;28;20063;-65
2022/10/22 06:46:57;;;;;;;1999.90;999.90;;;12.40;99.90;;;;;;5106409;28;20122;-65
2022/10/22 06:49:22;;;;;;;1999.90;999.90;;;12.40;99.90;;;;;;5073780;28;20047;-66
2022/10/22 06:51:53;;;;;;;1999.90;999.90;;;12.50;99.90;;;;;;5102279;28;20036;-66
2022/10/22 06:54:19;;;;;;;1999.90;999.90;;;12.60;99.90;;;;;;5107628;28;20043;-65
2022/10/22 06:56:45;;;;;;;1999.90;999.90;;;12.60;99.90;;;;;;5107077;28;20046;-65
2022/10/22 06:59:10;;;;;;;1999.90;999.90;;;12.70;99.90;;;;;;5108256;28;20036;-65
2022/10/22 07:01:37;;;;;;;1999.90;999.90;;;12.80;99.90;;;;;;5085208;28;20040;-65
2022/10/22 07:04:03;;;;;;;1999.90;999.90;;;12.80;99.90;;;;;;5100870;28;20090;-65
2022/10/22 07:06:29;;;;;;;1999.90;999.90;;;12.90;99.90;;;;;;5074305;28;20051;-65
2022/10/22 07:08:56;;;;;;;1999.90;999.90;;;13.00;99.90;;;;;;5104669;28;20036;-65
2022/10/22 07:11:27;;;;;;;1999.90;999.90;;;13.00;99.90;;;;;;5100967;28;20035;-65
2022/10/22 07:13:55;;;;;;;1999.90;999.90;;;13.10;99.90;;;;;;5102334;28;20046;-65
2022/10/22 07:16:21;;;;;;;1999.90;999.90;;;13.10;99.90;;;;;;5111377;28;20077;-65
2022/10/22 07:18:47;;;;;;;1999.90;999.90;;;13.10;99.90;;;;;;5080095;28;20044;-65
2022/10/22 07:21:15;;;;;;;1999.90;999.90;;;13.10;99.90;;;;;;5112204;27;20044;-65
2022/10/22 07:23:41;;;;;;;1999.90;999.90;;;13.20;99.90;;;;;;5083945;28;20089;-66
2022/10/22 07:26:07;;;;;;;1999.90;999.90;;;13.30;99.90;;;;;;5094964;28;20047;-65
2022/10/22 07:28:35;;;;;;;1999.90;999.90;;;13.30;99.90;;;;;;5108708;27;20039;-65
2022/10/22 07:31:01;;;;;;;1999.90;999.90;;;13.40;99.90;;;;;;5110926;27;20468;-65
2022/10/22 07:33:27;;;;;;;1999.90;999.90;;;13.40;99.90;;;;;;5106828;28;20079;-65
2022/10/22 07:36:00;;;;;;;1999.90;999.90;;;13.40;99.90;;;;;;5102432;27;20518;-65
2022/10/22 07:38:27;;;;;;;1999.90;999.90;;;13.50;99.90;;;;;;5095412;27;20047;-66
2022/10/22 07:40:52;;;;;;;1999.90;999.90;;;13.50;99.90;;;;;;5092506;28;20050;-65
2022/10/22 07:43:18;;;;;;;1999.90;999.90;;;13.60;99.90;;;;;;5078973;28;20035;-65
2022/10/22 07:45:44;;;;;;;1999.90;999.90;;;13.60;99.90;;;;;;5106359;27;20441;-65
2022/10/22 07:48:09;;;;;;;1999.90;999.90;;;13.60;99.90;;;;;;5087497;28;20097;-65
2022/10/22 07:50:35;;;;;;;1999.90;999.90;;;13.60;99.90;;;;;;5087066;28;20302;-66
2022/10/22 07:53:00;;;;;;;1999.90;999.90;;;13.60;99.90;;;;;;5108299;27;20027;-65
2022/10/22 07:55:26;;;;;;;1999.90;999.90;;;13.60;99.90;;;;;;5109454;27;20501;-65
2022/10/22 07:57:52;;;;;;;1999.90;999.90;;;13.60;99.90;;;;;;5113265;27;20031;-65
2022/10/22 08:00:18;;;;;;;1999.90;999.90;;;13.70;99.90;;;;;;5094271;28;20031;-65
2022/10/22 08:02:43;;;;;;;1999.90;999.90;;;13.70;99.90;;;;;;5078864;27;20552;-65
2022/10/22 08:05:09;;;;;;;1999.90;999.90;;;13.70;99.90;;;;;;5090201;27;20043;-66
2022/10/22 08:07:35;;;;;;;1999.90;999.90;;;13.70;99.90;;;;;;5087886;28;20047;-65
2022/10/22 08:10:00;;;;;;;1999.90;999.90;;;13.70;99.90;;;;;;5120089;27;20496;-65
2022/10/22 08:12:26;;;;;;;1999.90;999.90;;;13.80;99.90;;;;;;5091656;28;20374;-65
2022/10/22 08:14:51;;;;;;;1999.90;999.90;;;13.80;99.90;;;;;;5110061;28;20059;-66
2022/10/22 08:17:17;;;;;;;1999.90;999.90;;;13.90;99.90;;;;;;5119531;27;20043;-66
2022/10/22 08:19:43;;;;;;;1999.90;999.90;;;14.00;99.90;;;;;;5118341;27;20075;-65
2022/10/22 08:22:08;;;;;;;1999.90;999.90;;;14.20;99.90;;;;;;5097779;28;20039;-65
2022/10/22 08:24:34;;;;;;;1999.90;999.90;;;14.30;99.90;;;;;;5078578;28;20070;-66
2022/10/22 08:26:59;;;;;;;1999.90;999.90;;;14.50;99.90;;;;;;5111832;27;20043;-65
2022/10/22 08:29:25;;;;;;;1999.90;999.90;;;14.70;99.90;;;;;;5105468;27;20035;-65
2022/10/22 08:31:52;;;;;;;1999.90;999.90;;;14.90;99.90;;;;;;5100986;27;20431;-65
2022/10/22 08:34:18;;;;;;;1999.90;999.90;;;15.30;99.90;;;;;;5079060;28;20122;-65
2022/10/22 08:36:43;;;;;;;1999.90;999.90;;;15.80;99.90;;;;;;5105491;28;20119;-65
2022/10/22 08:39:09;;;;;;;1999.90;999.90;;;16.60;99.90;;;;;;5109814;27;20036;-65
2022/10/22 08:41:44;;;;;;;1999.90;999.90;;;17.10;99.90;;;;;;5067216;28;20044;-65
2022/10/22 08:44:19;;;;;;;1999.90;999.90;;;17.50;99.90;;;;;;5081118;27;20044;-65
2022/10/22 08:47:18;;;;;;;1999.90;999.90;;;17.90;99.90;;;;;;5095555;28;20055;-65
2022/10/22 08:49:44;;;;;;;1999.90;999.90;;;18.10;99.90;;;;;;5104332;27;20051;-66
2022/10/22 08:52:16;;;;;;;1999.90;999.90;;;18.30;99.90;;;;;;5102206;28;20050;-66
2022/10/22 08:54:47;;;;;;;;;;;18.50;99.90;;;;;;5088636;28;20047;-66
2022/10/22 08:57:40;;;;;;;1999.90;999.90;;;18.60;99.90;;;;;;5105440;27;19981;-66
2022/10/22 09:00:14;;;;;;;1999.90;999.90;;;18.40;99.90;;;;;;5098964;27;20074;-66
2022/10/22 09:03:01;;;;;;;1999.90;999.90;;;18.30;99.90;;;;;;5073536;28;20074;-66
2022/10/22 09:05:51;;;;;;;1999.90;999.90;;;18.10;99.90;;;;;;5106833;27;20389;-66
2022/10/22 09:08:19;;;;;;;1999.90;999.90;;;18.10;99.90;;;;;;5105992;27;20054;-66
2022/10/22 09:10:52;;;;;;;1999.90;999.90;;;18.00;99.90;;;;;;5090102;28;20048;-66
2022/10/22 09:13:20;;;;;;;1999.90;999.90;;;18.10;99.90;;;;;;5105039;27;20120;-66
2022/10/22 09:15:53;;;;;;;1999.90;999.90;;;18.20;99.90;;;;;;5107303;28;21331;-66
2022/10/22 09:18:42;;;;;;;1999.90;999.90;;;18.10;99.90;;;;;;5106753;28;20040;-65
2022/10/22 09:21:32;;;;;;;1999.90;999.90;;;18.20;99.90;;;;;;5054671;28;20051;-66
2022/10/22 09:24:17;;;;;;;1999.90;999.90;;;18.30;99.90;;;;;;5106222;28;20401;-66
2022/10/22 09:26:43;;;;;;;1999.90;999.90;;;18.50;99.90;;;;;;5103733;28;20051;-66
2022/10/22 09:29:18;;;;;;;1999.90;999.90;;;18.30;99.90;;;;;;5103873;27;20043;-65
2022/10/22 09:31:43;;;;;;;1999.90;999.90;;;17.90;99.90;;;;;;5095538;27;20054;-65
2022/10/22 09:34:12;;;;;;;1999.90;999.90;;;17.60;99.90;;;;;;5104533;27;20051;-65
2022/10/22 09:36:38;;;;;;;1999.90;999.90;;;17.40;99.90;;;;;;5113293;27;20043;-65
2022/10/22 09:39:03;;;;;;;1999.90;999.90;;;17.20;99.90;;;;;;5109652;27;20046;-66
2022/10/22 09:41:29;;;;;;;1999.90;999.90;;;17.10;99.90;;;;;;5106062;27;20043;-66
2022/10/22 09:43:55;;;;;;;1999.90;999.90;;;16.90;99.90;;;;;;5119208;27;20401;-66
2022/10/22 09:46:23;;;;;;;1999.90;999.90;;;16.80;99.90;;;;;;5108089;28;20064;-66
2022/10/22 09:49:12;;;;;;;1999.90;999.90;;;16.80;99.90;;;;;;5096677;27;20036;-66
2022/10/22 09:51:57;;;;;;;1999.90;999.90;;;16.80;99.90;;;;;;5102157;28;20050;-66
2022/10/22 09:54:31;;;;;;;1999.90;999.90;;;16.70;99.90;;;;;;5100191;28;20039;-65
2022/10/22 09:57:15;;;;;;;1999.90;999.90;;;16.70;99.90;;;;;;5094145;28;20050;-66
2022/10/22 09:59:42;;;;;;;1999.90;999.90;;;16.60;99.90;;;;;;5107864;28;20366;-65
2022/10/22 10:02:18;;;;;;;1999.90;999.90;;;16.60;99.90;;;;;;5090087;28;20047;-66
2022/10/22 10:04:51;;;;;;;1999.90;999.90;;;16.60;99.90;;;;;;5090722;28;20092;-66
2022/10/22 10:07:20;;;;;;;1999.90;999.90;;;16.50;99.90;;;;;;5108497;28;20039;-66
2022/10/22 10:09:46;;;;;;;1999.90;999.90;;;16.50;99.90;;;;;;5108535;27;20114;-65
2022/10/22 10:12:24;;;;;;;1999.90;999.90;;;16.50;99.90;;;;;;5109078;27;20040;-65
2022/10/22 10:15:11;;;;;;;1999.90;999.90;;;16.50;99.90;;;;;;5107819;28;20110;-65
2022/10/22 10:17:47;;;;;;;1999.90;999.90;;;16.50;99.90;;;;;;5086139;28;20351;-66
2022/10/22 10:20:47;;;;;;;1999.90;999.90;;;16.60;99.90;;;;;;5109628;27;20081;-65
2022/10/22 10:23:35;;;;;;;1999.90;999.90;;;16.70;99.90;;;;;;5106079;27;20126;-65
2022/10/22 10:26:08;;;;;;;1999.90;999.90;;;16.70;99.90;;;;;;5081740;28;20047;-66
2022/10/22 10:29:03;;;;;;;1999.90;999.90;;;16.70;99.90;;;;;;5111561;27;20126;-65
2022/10/22 10:32:01;;;;;;;1999.90;999.90;;;16.70;99.90;;;;;;5089734;28;20044;-65
2022/10/22 10:35:15;;;;;;;1999.90;999.90;;;16.70;99.90;;;;;;5084023;28;20044;-66
2022/10/22 10:37:48;;;;;;;1999.90;999.90;;;16.70;99.90;;;;;;5106288;27;20044;-66
2022/10/22 10:40:28;;;;;;;1999.90;999.90;;;16.70;99.90;;;;;;5103811;28;20464;-65
2022/10/22 10:43:19;;;;;;;1999.90;999.90;;;16.70;99.90;;;;;;5100021;28;20042;-65
2022/10/22 10:46:14;;;;;;;1999.90;999.90;;;16.60;99.90;;;;;;5068946;28;20048;-65
2022/10/22 10:48:58;;;;;;;1999.90;999.90;;;16.60;99.90;;;;;;5104724;28;20046;-65
2022/10/22 10:51:36;;;;;;;1999.90;999.90;;;16.50;99.90;;;;;;5095181;28;20122;-65
2022/10/22 10:54:39;;;;;;;1999.90;999.90;;;16.40;99.90;;;;;;5094878;28;20054;-65
2022/10/22 10:57:33;;;;;;;1999.90;999.90;;;16.40;99.90;;;;;;5085852;28;20055;-65
2022/10/22 11:00:08;;;;;;;1999.90;999.90;;;16.20;99.90;;;;;;5093467;28;20048;-65
2022/10/22 11:03:03;;;;;;;1999.90;999.90;;;16.10;99.90;;;;;;5102878;28;20040;-65
2022/10/22 11:05:56;;;;;;;1999.90;999.90;;;16.00;99.90;;;;;;5088328;28;20509;-65
2022/10/22 11:08:28;;;;;;;1999.90;999.90;;;15.80;99.90;;;;;;5086332;28;20208;-65
2022/10/22 11:11:02;;;;;;;1999.90;999.90;;;15.70;99.90;;;;;;5110841;28;20039;-67
2022/10/22 11:13:37;;;;;;;1999.90;999.90;;;15.60;99.90;;;;;;5099126;27;20118;-65
2022/10/22 11:16:15;;;;;;;1999.90;999.90;;;15.70;99.90;;;;;;5084309;28;20431;-65
2022/10/22 11:18:49;;;;;;;1999.90;999.90;;;15.80;99.90;;;;;;5107179;27;20485;-65
2022/10/22 11:21:53;;;;;;;1999.90;999.90;;;16.00;99.90;;;;;;5096614;27;20044;-65
2022/10/22 11:24:33;;;;;;;1999.90;999.90;;;16.50;99.90;;;;;;5090611;27;20417;-65
2022/10/22 11:27:38;;;;;;;1999.90;999.90;;;16.70;99.90;;;;;;5087132;28;20054;-65
2022/10/22 11:30:13;;;;;;;1999.90;999.90;;;16.90;99.90;;;;;;5110584;27;20050;-65
2022/10/22 11:32:41;;;;;;;1999.90;999.90;;;17.00;99.90;;;;;;5094715;27;20123;-65
2022/10/22 11:35:14;;;;;;;1999.90;999.90;;;16.90;99.90;;;;;;5095522;28;20091;-65
2022/10/22 11:37:41;;;;;;;;;;;16.80;99.90;;;;;;5084031;27;20044;-65
2022/10/22 11:40:34;;;;;;;1999.90;999.90;;;16.70;99.90;;;;;;5111028;27;19926;-65
2022/10/22 11:43:09;;;;;;;1999.90;999.90;;;16.50;99.90;;;;;;5096152;27;20658;-65
2022/10/22 11:45:42;;;;;;;1999.90;999.90;;;16.30;99.90;;;;;;5089442;27;20064;-65
2022/10/22 11:48:10;;;;;;;1999.90;999.90;;;16.10;99.90;;;;;;5107039;27;20059;-65
2022/10/22 11:50:59;;;;;;;1999.90;999.90;;;16.00;99.90;;;;;;5107485;27;20504;-65
2022/10/22 11:53:24;;;;;;;1999.90;999.90;;;15.90;99.90;;;;;;5105696;27;20116;-65
2022/10/22 11:55:52;;;;;;;1999.90;999.90;;;15.90;99.90;;;;;;5104414;28;20047;-65
2022/10/22 11:58:31;;;;;;;1999.90;999.90;;;15.80;99.90;;;;;;5108447;27;20041;-65
2022/10/22 12:01:05;;;;;;;1999.90;999.90;;;15.80;99.90;;;;;;5106867;27;20043;-65
2022/10/22 12:03:31;;;;;;;1999.90;999.90;;;15.90;99.90;;;;;;5087828;28;20047;-65
2022/10/22 12:06:12;;;;;;;1999.90;999.90;;;16.00;99.90;;;;;;5103684;28;20051;-65
2022/10/22 12:08:49;;;;;;;1999.90;999.90;;;16.00;99.90;;;;;;5100506;27;20048;-65
2022/10/22 12:11:58;;;;;;;1999.90;999.90;;;16.00;99.90;;;;;;5105320;27;20066;-65
2022/10/22 12:14:49;;;;;;;1999.90;999.90;;;16.00;99.90;;;;;;5043083;28;20095;-65
2022/10/22 12:17:17;;;;;;;1999.90;999.90;;;16.10;99.90;;;;;;5044938;28;20429;-66
2022/10/22 12:19:50;;;;;;;1999.90;999.90;;;16.20;99.90;;;;;;5006789;28;20052;-65
2022/10/22 12:22:26;;;;;;;1999.90;999.90;;;16.30;99.90;;;;;;5021239;28;20486;-65